Time;durP1;ratioP1;P1;durP2;ratioP2;P2;SDS_P1;SDS_P2;PMS_P1;PMS_P2;Temp;Humidity;BMP_temperature;BMP_pressure;BME280_temperature;BME280_humidity;BME280_pressure;Samples;Min_cycle;Max_cycle;Signal;HPM_P1;HPM_P2
2023/06/05 00:00:38;;;;;;;1999.90;999.90;;;;;;;17.42;100.00;98032.22;5070348;28;20013;-75
2023/06/05 00:03:04;;;;;;;1999.90;999.90;;;;;;;17.35;100.00;98033.91;5070686;28;20506;-76
2023/06/05 00:05:31;;;;;;;1999.90;999.90;;;;;;;17.30;100.00;98028.56;5070013;28;20502;-76
2023/06/05 00:07:56;;;;;;;1999.90;999.90;;;;;;;17.39;100.00;98041.19;5069841;28;20370;-75
2023/06/05 00:10:21;;;;;;;1999.90;999.90;;;;;;;17.43;100.00;98033.84;5069874;28;20035;-75
2023/06/05 00:12:47;;;;;;;1999.90;999.90;;;;;;;17.39;100.00;98027.34;5069787;28;20021;-75
2023/06/05 00:15:12;;;;;;;1999.90;999.90;;;;;;;17.37;100.00;98037.13;5073154;28;20492;-74
2023/06/05 00:17:38;;;;;;;1999.90;999.90;;;;;;;17.31;100.00;98044.84;5070824;28;20023;-73
2023/06/05 00:20:05;;;;;;;1999.90;999.90;;;;;;;17.33;100.00;98030.66;5090997;28;20024;-76
2023/06/05 00:22:35;;;;;;;1999.90;999.90;;;;;;;17.31;100.00;98038.50;5076912;28;20050;-77
2023/06/05 00:25:01;;;;;;;1999.90;999.90;;;;;;;17.32;100.00;98031.81;5096018;28;20028;-75
2023/06/05 00:27:28;;;;;;;1999.90;999.90;;;;;;;17.40;100.00;98033.69;5095659;28;20381;-76
2023/06/05 00:29:53;;;;;;;1999.90;999.90;;;;;;;17.32;100.00;98023.53;5099117;28;20102;-76
2023/06/05 00:32:18;;;;;;;1999.90;999.90;;;;;;;17.34;100.00;98022.03;5100864;28;20056;-77
2023/06/05 00:34:44;;;;;;;1999.90;999.90;;;;;;;17.34;100.00;98029.53;5093610;28;20028;-76
2023/06/05 00:37:11;;;;;;;1999.90;999.90;;;;;;;17.32;100.00;98031.81;5093444;28;20388;-74
2023/06/05 00:39:36;;;;;;;1999.90;999.90;;;;;;;17.27;100.00;98019.00;5093262;28;20024;-75
2023/06/05 00:42:02;;;;;;;1999.90;999.90;;;;;;;17.35;100.00;98026.44;5093511;28;20035;-75
2023/06/05 00:44:27;;;;;;;1999.90;999.90;;;;;;;17.41;100.00;98019.53;5093401;28;20012;-74
2023/06/05 00:46:53;;;;;;;1999.90;999.90;;;;;;;17.41;100.00;98021.50;5091599;28;20125;-75
2023/06/05 00:49:19;;;;;;;1999.90;999.90;;;;;;;17.36;100.00;98035.50;5093322;28;20435;-76
2023/06/05 00:51:45;;;;;;;1999.90;999.90;;;;;;;17.29;100.00;98027.75;5093252;28;20024;-74
2023/06/05 00:54:13;;;;;;;1999.90;999.90;;;;;;;17.38;100.00;98025.75;5093151;28;20031;-75
2023/06/05 00:56:42;;;;;;;1999.90;999.90;;;;;;;17.39;100.00;98013.53;5091568;28;20024;-74
2023/06/05 00:59:08;;;;;;;1999.90;999.90;;;;;;;17.50;100.00;98023.03;5091549;28;20031;-73
2023/06/05 01:01:34;;;;;;;1999.90;999.90;;;;;;;17.53;100.00;98024.31;5092972;28;20028;-74
2023/06/05 01:04:00;;;;;;;1999.90;999.90;;;;;;;17.53;100.00;98024.31;5093320;28;20020;-74
2023/06/05 01:06:27;;;;;;;1999.90;999.90;;;;;;;17.54;100.00;98018.44;5091624;28;20077;-74
2023/06/05 01:08:53;;;;;;;1999.90;999.90;;;;;;;17.49;100.00;98026.13;5092760;28;20103;-75
2023/06/05 01:11:30;;;;;;;1999.90;999.90;;;;;;;17.62;100.00;98020.38;5092946;28;20564;-74
2023/06/05 01:14:08;;;;;;;1999.90;999.90;;;;;;;17.61;100.00;98023.44;5092611;28;20028;-74
2023/06/05 01:16:35;;;;;;;1999.90;999.90;;;;;;;17.59;100.00;98012.75;5092702;28;20064;-75
2023/06/05 01:19:06;;;;;;;1999.90;999.90;;;;;;;17.62;100.00;98008.47;5092537;28;20027;-75
2023/06/05 01:21:32;;;;;;;1999.90;999.90;;;;;;;17.64;100.00;98023.59;5092712;28;20034;-74
2023/06/05 01:24:01;;;;;;;1999.90;999.90;;;;;;;17.53;100.00;98021.56;5088692;28;20110;-76
2023/06/05 01:26:54;;;;;;;1999.90;999.90;;;;;;;17.52;100.00;98014.41;5083049;28;20028;-74
2023/06/05 01:29:33;;;;;;;1999.90;999.90;;;;;;;17.52;100.00;98019.94;5091766;28;20085;-76
2023/06/05 01:32:07;;;;;;;1999.90;999.90;;;;;;;17.50;100.00;98017.50;5071916;28;20028;-74
2023/06/05 01:34:36;;;;;;;1999.90;999.90;;;;;;;17.44;100.00;98009.75;5071984;28;20032;-75
2023/06/05 01:37:03;;;;;;;1999.90;999.90;;;;;;;17.45;100.00;98003.88;5104570;28;20122;-75
2023/06/05 01:39:29;;;;;;;1999.90;999.90;;;;;;;17.38;100.00;98011.13;5111188;28;20424;-76
2023/06/05 01:41:55;;;;;;;1999.90;999.90;;;;;;;17.46;100.00;98012.97;5107798;28;20035;-73
2023/06/05 01:44:21;;;;;;;1999.90;999.90;;;;;;;17.26;100.00;98011.06;5090674;28;20020;-73
2023/06/05 01:46:48;;;;;;;1999.90;999.90;;;;;;;17.29;100.00;98015.91;5090072;28;20547;-73
2023/06/05 01:49:14;;;;;;;1999.90;999.90;;;;;;;17.34;100.00;98010.97;5091779;28;20054;-74
2023/06/05 01:51:39;;;;;;;1999.90;999.90;;;;;;;17.38;100.00;98013.88;5091881;28;20054;-74
2023/06/05 01:54:05;;;;;;;1999.90;999.90;;;;;;;17.27;100.00;97998.81;5099656;28;20057;-74
2023/06/05 01:56:32;;;;;;;1999.90;999.90;;;;;;;17.34;100.00;98004.63;5110638;28;20008;-74
2023/06/05 01:58:58;;;;;;;1999.90;999.90;;;;;;;17.35;100.00;97997.97;5110328;28;20055;-73
2023/06/05 02:01:23;;;;;;;1999.90;999.90;;;;;;;17.36;100.00;97991.25;5112041;28;20484;-75
2023/06/05 02:03:53;;;;;;;1999.90;999.90;;;;;;;17.49;100.00;98006.78;5110860;28;20028;-74
2023/06/05 02:06:18;;;;;;;1999.90;999.90;;;;;;;17.42;100.00;97998.22;5112339;28;20020;-73
2023/06/05 02:08:44;;;;;;;1999.90;999.90;;;;;;;17.44;100.00;97995.94;5111878;28;20050;-75
2023/06/05 02:11:10;;;;;;;1999.90;999.90;;;;;;;17.48;100.00;97996.84;5112270;28;20027;-75
2023/06/05 02:13:40;;;;;;;1999.90;999.90;;;;;;;17.39;100.00;97994.16;5110370;28;20020;-74
2023/06/05 02:16:09;;;;;;;1999.90;999.90;;;;;;;17.30;100.00;97989.84;5111611;28;20023;-75
2023/06/05 02:18:37;;;;;;;1999.90;999.90;;;;;;;17.26;100.00;97988.94;5106090;28;20028;-74
2023/06/05 02:21:03;;;;;;;1999.90;999.90;;;;;;;17.24;100.00;97986.50;5090281;28;20046;-74
2023/06/05 02:23:28;;;;;;;1999.90;999.90;;;;;;;17.31;100.00;97985.94;5091774;28;20027;-75
2023/06/05 02:25:54;;;;;;;1999.90;999.90;;;;;;;17.38;100.00;97991.75;5091562;28;20468;-73
2023/06/05 02:28:20;;;;;;;1999.90;999.90;;;;;;;17.48;100.00;97980.25;5090956;28;20139;-74
2023/06/05 02:30:47;;;;;;;1999.90;999.90;;;;;;;17.47;100.00;97986.97;5089790;28;20055;-75
2023/06/05 02:33:14;;;;;;;1999.90;999.90;;;;;;;17.50;100.00;97983.50;5091296;28;20419;-74
2023/06/05 02:35:40;;;;;;;1999.90;999.90;;;;;;;17.40;100.00;97970.91;5091437;28;20090;-76
2023/06/05 02:38:07;;;;;;;1999.90;999.90;;;;;;;17.48;100.00;97975.53;5091239;28;20027;-74
2023/06/05 02:40:32;;;;;;;1999.90;999.90;;;;;;;17.50;100.00;97972.44;5094212;28;20038;-75
2023/06/05 02:42:57;;;;;;;1999.90;999.90;;;;;;;17.46;100.00;97977.03;5098734;28;20032;-75
2023/06/05 02:45:23;;;;;;;1999.90;999.90;;;;;;;17.43;100.00;97963.88;5086729;28;20602;-75
2023/06/05 02:47:48;;;;;;;1999.90;999.90;;;;;;;17.38;100.00;97967.69;5070346;28;20036;-75
2023/06/05 02:50:14;;;;;;;1999.90;999.90;;;;;;;17.34;100.00;97965.91;5070382;28;20469;-75
2023/06/05 02:52:40;;;;;;;1999.90;999.90;;;;;;;17.25;100.00;97954.13;5052389;28;20032;-74
2023/06/05 02:55:07;;;;;;;1999.90;999.90;;;;;;;17.33;100.00;97962.34;5070424;28;20029;-75
2023/06/05 02:57:40;;;;;;;1999.90;999.90;;;;;;;17.32;100.00;97954.41;5062715;28;20025;-75
2023/06/05 03:00:09;;;;;;;1999.90;999.90;;;;;;;17.33;100.00;97958.75;5031097;28;20099;-76
2023/06/05 03:02:36;;;;;;;1999.90;999.90;;;;;;;17.32;100.00;97957.16;5050234;28;20029;-75
2023/06/05 03:05:03;;;;;;;1999.90;999.90;;;;;;;17.35;100.00;97973.06;5050701;28;20063;-74
2023/06/05 03:07:29;;;;;;;1999.90;999.90;;;;;;;17.28;100.00;97959.78;5049651;28;20029;-73
2023/06/05 03:09:55;;;;;;;1999.90;999.90;;;;;;;17.25;100.00;97962.44;5032061;28;20048;-75
2023/06/05 03:12:20;;;;;;;1999.90;999.90;;;;;;;17.22;100.00;97960.34;5050265;28;20051;-75
2023/06/05 03:14:45;;;;;;;1999.90;999.90;;;;;;;17.12;100.00;97961.56;5050139;28;20017;-76
2023/06/05 03:17:11;;;;;;;1999.90;999.90;;;;;;;17.02;100.00;97951.72;5050199;28;20021;-76
2023/06/05 03:19:36;;;;;;;1999.90;999.90;;;;;;;17.06;100.00;97968.44;5049920;28;20051;-74
2023/06/05 03:22:01;;;;;;;1999.90;999.90;;;;;;;16.99;100.00;97963.44;5050104;28;20025;-75
2023/06/05 03:24:27;;;;;;;1999.90;999.90;;;;;;;16.95;100.00;97962.50;5050195;28;20481;-75
2023/06/05 03:26:53;;;;;;;1999.90;999.90;;;;;;;16.91;100.00;97952.47;5050217;28;20025;-77
2023/06/05 03:29:18;;;;;;;1999.90;999.90;;;;;;;16.99;100.00;97968.16;5050324;28;20490;-76
2023/06/05 03:31:44;;;;;;;1999.90;999.90;;;;;;;16.98;100.00;97956.28;5049916;28;20033;-75
2023/06/05 03:34:09;;;;;;;1999.90;999.90;;;;;;;17.01;100.00;97966.66;5050847;28;20017;-74
2023/06/05 03:36:37;;;;;;;1999.90;999.90;;;;;;;17.08;100.00;97958.66;5050098;28;20025;-75
2023/06/05 03:39:02;;;;;;;1999.90;999.90;;;;;;;16.99;100.00;97962.63;5049840;28;20482;-75
2023/06/05 03:41:27;;;;;;;1999.90;999.90;;;;;;;17.03;100.00;97963.59;5049973;28;20040;-73
2023/06/05 03:43:53;;;;;;;1999.90;999.90;;;;;;;16.98;100.00;97956.28;5032006;28;20032;-74
2023/06/05 03:46:19;;;;;;;1999.90;999.90;;;;;;;17.01;100.00;97944.56;5049666;28;20045;-76
2023/06/05 03:48:58;;;;;;;1999.90;999.90;;;;;;;17.03;100.00;97945.03;5050108;28;20036;-73
2023/06/05 03:51:23;;;;;;;1999.90;999.90;;;;;;;17.06;100.00;97957.38;5050803;28;20394;-72
2023/06/05 03:53:54;;;;;;;1999.90;999.90;;;;;;;17.05;100.00;97953.81;5050848;28;20032;-76
2023/06/05 03:56:21;;;;;;;1999.90;999.90;;;;;;;17.09;100.00;97951.16;5051139;28;20033;-75
2023/06/05 03:58:48;;;;;;;1999.90;999.90;;;;;;;17.10;100.00;97956.34;5053797;28;20033;-75
2023/06/05 04:01:14;;;;;;;1999.90;999.90;;;;;;;17.08;100.00;97955.06;5054040;28;20036;-74
2023/06/05 04:03:39;;;;;;;1999.90;999.90;;;;;;;17.17;100.00;97964.09;5054445;28;20488;-76
2023/06/05 04:06:05;;;;;;;1999.90;999.90;;;;;;;17.20;100.00;97965.41;5054038;28;20580;-76
2023/06/05 04:08:31;;;;;;;1999.90;999.90;;;;;;;17.14;100.00;97962.81;5054744;28;20036;-76
2023/06/05 04:10:57;;;;;;;1999.90;999.90;;;;;;;17.18;100.00;97959.38;5065765;28;20024;-73
2023/06/05 04:13:22;;;;;;;1999.90;999.90;;;;;;;17.15;100.00;97960.88;5053956;28;20106;-75
2023/06/05 04:15:48;;;;;;;1999.90;999.90;;;;;;;17.04;100.00;97960.47;5068094;28;20017;-75
2023/06/05 04:18:14;;;;;;;1999.90;999.90;;;;;;;17.11;100.00;97957.97;5070332;28;20071;-73
2023/06/05 04:20:39;;;;;;;1999.90;999.90;;;;;;;17.08;100.00;97953.13;5053096;28;20025;-74
2023/06/05 04:23:05;;;;;;;1999.90;999.90;;;;;;;17.05;100.00;97967.63;5035547;28;20036;-73
2023/06/05 04:25:30;;;;;;;1999.90;999.90;;;;;;;17.03;100.00;97964.41;5053129;28;20029;-73
2023/06/05 04:27:57;;;;;;;1999.90;999.90;;;;;;;17.01;100.00;97974.97;5034881;28;20037;-74
2023/06/05 04:30:22;;;;;;;1999.90;999.90;;;;;;;17.02;100.00;97954.47;5034738;28;20162;-76
2023/06/05 04:32:56;;;;;;;1999.90;999.90;;;;;;;17.15;100.00;97966.41;5052915;28;20111;-75
2023/06/05 04:35:22;;;;;;;1999.90;999.90;;;;;;;17.02;100.00;97956.44;5053547;28;20079;-73
2023/06/05 04:37:48;;;;;;;1999.90;999.90;;;;;;;17.00;100.00;97969.78;5074925;28;20070;-74
2023/06/05 04:40:16;;;;;;;1999.90;999.90;;;;;;;16.95;100.00;97965.25;5093018;28;20061;-74
2023/06/05 04:42:41;;;;;;;1999.90;999.90;;;;;;;16.91;100.00;97961.56;5093027;28;20114;-75
2023/06/05 04:45:07;;;;;;;1999.90;999.90;;;;;;;16.93;100.00;97967.56;5081071;28;20127;-73
2023/06/05 04:47:33;;;;;;;1999.90;999.90;;;;;;;16.88;100.00;97956.72;5072704;28;20036;-75
2023/06/05 04:50:00;;;;;;;1999.90;999.90;;;;;;;16.83;100.00;97961.59;5056819;28;20031;-74
2023/06/05 04:52:26;;;;;;;1999.90;999.90;;;;;;;16.78;100.00;97957.09;5073428;28;20382;-76
2023/06/05 04:54:52;;;;;;;1999.90;999.90;;;;;;;16.79;100.00;97957.91;5081088;28;20024;-76
2023/06/05 04:57:18;;;;;;;1999.90;999.90;;;;;;;16.80;100.00;97960.31;5056679;28;20078;-79
2023/06/05 04:59:44;;;;;;;1999.90;999.90;;;;;;;16.83;100.00;97964.38;5072324;28;20066;-75
2023/06/05 05:02:09;;;;;;;1999.90;999.90;;;;;;;16.85;100.00;97962.88;5054753;28;20025;-75
2023/06/05 05:04:35;;;;;;;1999.90;999.90;;;;;;;16.84;100.00;97968.75;5073258;28;20033;-75
2023/06/05 05:07:03;;;;;;;1999.90;999.90;;;;;;;16.76;100.00;97964.91;5060942;28;20036;-77
2023/06/05 05:09:32;;;;;;;1999.90;999.90;;;;;;;16.72;100.00;97971.44;5033420;28;20033;-74
2023/06/05 05:11:58;;;;;;;1999.90;999.90;;;;;;;16.67;100.00;97966.09;5052197;28;20032;-75
2023/06/05 05:14:26;;;;;;;1999.90;999.90;;;;;;;16.61;100.00;97973.78;5052160;28;20426;-75
2023/06/05 05:16:52;;;;;;;1999.90;999.90;;;;;;;16.57;100.00;97970.88;5052129;28;20028;-75
2023/06/05 05:19:17;;;;;;;1999.90;999.90;;;;;;;16.55;100.00;97961.31;5052182;28;20025;-75
2023/06/05 05:21:45;;;;;;;1999.90;999.90;;;;;;;16.50;100.00;97956.75;5061426;28;20537;-77
2023/06/05 05:24:10;;;;;;;1999.90;999.90;;;;;;;16.56;100.00;97954.66;5070946;28;20064;-79
2023/06/05 05:26:36;;;;;;;1999.90;999.90;;;;;;;16.57;100.00;97962.56;5053166;28;20060;-78
2023/06/05 05:29:01;;;;;;;1999.90;999.90;;;;;;;16.70;100.00;97965.41;5041805;28;20028;-76
2023/06/05 05:31:27;;;;;;;1999.90;999.90;;;;;;;16.73;100.00;97959.25;5060123;28;20028;-80
2023/06/05 05:33:54;;;;;;;1999.90;999.90;;;;;;;16.73;100.00;97970.31;5060664;28;20067;-75
2023/06/05 05:36:20;;;;;;;1999.90;999.90;;;;;;;16.80;100.00;97976.09;5060785;28;20123;-76
2023/06/05 05:38:45;;;;;;;1999.90;999.90;;;;;;;16.80;100.00;97976.91;5062305;28;20587;-79
2023/06/05 05:41:11;;;;;;;1999.90;999.90;;;;;;;16.85;100.00;97973.94;5059380;28;20031;-80
2023/06/05 05:43:36;;;;;;;1999.90;999.90;;;;;;;16.87;100.00;97971.66;5060039;28;20055;-77
2023/06/05 05:46:01;;;;;;;1999.90;999.90;;;;;;;16.88;100.00;97976.06;5049447;28;20417;-75
2023/06/05 05:48:26;;;;;;;1999.90;999.90;;;;;;;16.84;100.00;97972.34;5071307;28;20067;-75
2023/06/05 05:50:52;;;;;;;1999.90;999.90;;;;;;;16.88;100.00;97973.28;5069909;28;20032;-76
2023/06/05 05:53:17;;;;;;;1999.90;999.90;;;;;;;16.80;100.00;97967.81;5069141;28;20028;-75
2023/06/05 05:55:42;;;;;;;1999.90;999.90;;;;;;;16.84;100.00;97975.09;5068923;28;20052;-75
2023/06/05 05:58:08;;;;;;;1999.90;999.90;;;;;;;16.82;100.00;97974.59;5070269;28;20081;-75
2023/06/05 06:00:34;;;;;;;1999.90;999.90;;;;;;;16.85;100.00;97979.47;5070999;28;20103;-76
2023/06/05 06:02:59;;;;;;;1999.90;999.90;;;;;;;16.84;100.00;97972.34;5071045;28;20032;-75
2023/06/05 06:05:25;;;;;;;1999.90;999.90;;;;;;;16.85;100.00;97967.63;5070276;28;20032;-76
2023/06/05 06:07:51;;;;;;;1999.90;999.90;;;;;;;16.94;100.00;97977.47;5069619;28;20036;-76
2023/06/05 06:10:16;;;;;;;1999.90;999.90;;;;;;;17.01;100.00;97977.72;5070360;28;20025;-75
2023/06/05 06:12:44;;;;;;;1999.90;999.90;;;;;;;17.02;100.00;97984.88;5069402;28;20028;-75
2023/06/05 06:15:10;;;;;;;1999.90;999.90;;;;;;;17.12;100.00;97986.44;5069909;28;20411;-74
2023/06/05 06:17:35;;;;;;;1999.90;999.90;;;;;;;17.05;100.00;97984.19;5071037;28;20074;-76
2023/06/05 06:20:01;;;;;;;1999.90;999.90;;;;;;;17.05;100.00;97997.22;5070792;28;20025;-75
2023/06/05 06:22:27;;;;;;;1999.90;999.90;;;;;;;17.10;100.00;97995.03;5070841;28;20481;-75
2023/06/05 06:24:53;;;;;;;1999.90;999.90;;;;;;;17.08;100.00;97986.28;5069505;28;20047;-75
2023/06/05 06:27:19;;;;;;;1999.90;999.90;;;;;;;17.10;100.00;97997.03;5070556;28;20036;-75
2023/06/05 06:29:52;;;;;;;1999.90;999.90;;;;;;;17.08;100.00;97997.34;5070414;28;20027;-75
2023/06/05 06:32:17;;;;;;;1999.90;999.90;;;;;;;17.03;100.00;97994.78;5070458;28;20032;-76
2023/06/05 06:34:44;;;;;;;1999.90;999.90;;;;;;;17.05;100.00;97988.91;5077589;28;20024;-76
2023/06/05 06:37:11;;;;;;;1999.90;999.90;;;;;;;17.01;100.00;97986.00;5094352;28;20050;-76
2023/06/05 06:39:36;;;;;;;1999.90;999.90;;;;;;;17.07;100.00;97992.16;5089443;28;20023;-75
2023/06/05 06:42:02;;;;;;;1999.90;999.90;;;;;;;17.08;100.00;97989.06;5089478;28;20388;-76
2023/06/05 06:44:28;;;;;;;1999.90;999.90;;;;;;;17.07;100.00;97986.66;5107696;28;20053;-76
2023/06/05 06:46:53;;;;;;;1999.90;999.90;;;;;;;17.06;100.00;97991.34;5109469;28;20044;-75
2023/06/05 06:49:20;;;;;;;1999.90;999.90;;;;;;;17.08;100.00;97994.59;5108617;28;20097;-75
2023/06/05 06:51:45;;;;;;;1999.90;999.90;;;;;;;17.03;100.00;97997.56;5110098;28;20031;-76
2023/06/05 06:54:11;;;;;;;1999.90;999.90;;;;;;;17.14;100.00;98001.53;5108492;28;20027;-75
2023/06/05 06:56:37;;;;;;;1999.90;999.90;;;;;;;17.05;100.00;98003.56;5108497;28;20470;-75
2023/06/05 06:59:10;;;;;;;1999.90;999.90;;;;;;;17.08;100.00;98004.81;5108507;28;20044;-74
2023/06/05 07:01:40;;;;;;;1999.90;999.90;;;;;;;17.03;100.00;97997.56;5089797;28;20040;-76
2023/06/05 07:04:05;;;;;;;1999.90;999.90;;;;;;;17.07;100.00;98001.25;5093954;28;20024;-75
2023/06/05 07:06:32;;;;;;;1999.90;999.90;;;;;;;17.09;100.00;97998.16;5089215;28;20655;-76
2023/06/05 07:08:57;;;;;;;1999.90;999.90;;;;;;;17.16;100.00;98003.16;5089273;28;20032;-74
2023/06/05 07:11:22;;;;;;;1999.90;999.90;;;;;;;17.17;100.00;98008.34;5088161;28;20081;-72
2023/06/05 07:13:48;;;;;;;1999.90;999.90;;;;;;;17.16;100.00;98003.16;5089378;28;20089;-75
2023/06/05 07:16:13;;;;;;;1999.90;999.90;;;;;;;17.18;100.00;98004.44;5089141;28;20505;-76
2023/06/05 07:18:40;;;;;;;1999.90;999.90;;;;;;;17.21;100.00;97994.66;5089202;28;20048;-75
2023/06/05 07:21:05;;;;;;;1999.90;999.90;;;;;;;17.26;100.00;97988.94;5089160;28;20027;-75
2023/06/05 07:23:32;;;;;;;1999.90;999.90;;;;;;;17.29;100.00;97988.25;5089182;28;20392;-76
2023/06/05 07:25:57;;;;;;;1999.90;999.90;;;;;;;17.30;100.00;97992.63;5088696;28;20425;-75
2023/06/05 07:28:24;;;;;;;1999.90;999.90;;;;;;;17.27;100.00;97996.06;5088946;28;20066;-75
2023/06/05 07:30:50;;;;;;;1999.90;999.90;;;;;;;17.27;100.00;97996.06;5089613;28;20056;-76
2023/06/05 07:33:16;;;;;;;1999.90;999.90;;;;;;;17.16;100.00;97997.63;5090793;28;20059;-75
2023/06/05 07:35:42;;;;;;;1999.90;999.90;;;;;;;17.19;100.00;97995.00;5093685;28;20035;-76
2023/06/05 07:38:07;;;;;;;1999.90;999.90;;;;;;;17.18;100.00;97981.50;5093234;28;20114;-76
2023/06/05 07:40:33;;;;;;;1999.90;999.90;;;;;;;17.29;100.00;97991.03;5092069;28;20107;-74
2023/06/05 07:42:59;;;;;;;1999.90;999.90;;;;;;;17.29;100.00;97993.78;5093187;28;20136;-75
2023/06/05 07:45:25;;;;;;;1999.90;999.90;;;;;;;17.26;100.00;97983.41;5088230;28;20039;-72
2023/06/05 07:47:50;;;;;;;1999.90;999.90;;;;;;;17.25;100.00;97981.78;5072706;28;20126;-75
2023/06/05 07:50:15;;;;;;;1999.90;999.90;;;;;;;17.13;100.00;97986.06;5073001;28;20549;-74
2023/06/05 07:52:41;;;;;;;1999.90;999.90;;;;;;;17.14;100.00;97992.41;5074113;28;20032;-72
2023/06/05 07:55:07;;;;;;;1999.90;999.90;;;;;;;17.06;100.00;97993.31;5073884;28;20035;-74
2023/06/05 07:57:33;;;;;;;1999.90;999.90;;;;;;;17.02;100.00;97995.13;5071419;28;20068;-74
2023/06/05 07:59:58;;;;;;;1999.90;999.90;;;;;;;17.05;100.00;97995.25;5072614;28;20031;-72
2023/06/05 08:02:24;;;;;;;1999.90;999.90;;;;;;;17.05;100.00;97989.72;5072562;28;20465;-74
2023/06/05 08:04:49;;;;;;;1999.90;999.90;;;;;;;17.03;100.00;97985.69;5072538;28;20119;-75
2023/06/05 08:07:15;;;;;;;1999.90;999.90;;;;;;;17.12;100.00;98001.06;5054725;28;20032;-74
2023/06/05 08:09:41;;;;;;;1999.90;999.90;;;;;;;17.18;100.00;97995.31;5073266;28;20107;-75
2023/06/05 08:12:06;;;;;;;1999.90;999.90;;;;;;;17.19;100.00;97996.94;5072637;28;20374;-75
2023/06/05 08:14:33;;;;;;;1999.90;999.90;;;;;;;17.17;100.00;97983.44;5073011;28;20385;-74
2023/06/05 08:16:59;;;;;;;1999.90;999.90;;;;;;;17.33;100.00;97978.94;5072929;28;20493;-74
2023/06/05 08:19:24;;;;;;;1999.90;999.90;;;;;;;17.41;100.00;97985.53;5072977;28;20025;-74
2023/06/05 08:21:52;;;;;;;1999.90;999.90;;;;;;;17.50;100.00;97989.84;5072848;28;20063;-75
2023/06/05 08:24:17;;;;;;;1999.90;999.90;;;;;;;17.50;100.00;97977.97;5054976;28;20103;-76
2023/06/05 08:26:42;;;;;;;1999.90;999.90;;;;;;;17.42;100.00;97970.56;5054567;28;20115;-74
2023/06/05 08:29:08;;;;;;;1999.90;999.90;;;;;;;17.49;100.00;97977.16;5072829;28;20024;-73
2023/06/05 08:31:34;;;;;;;1999.90;999.90;;;;;;;17.56;100.00;97987.72;5072688;28;20551;-74
2023/06/05 08:33:59;;;;;;;1999.90;999.90;;;;;;;17.57;100.00;97981.03;5054597;28;20059;-74
2023/06/05 08:36:25;;;;;;;1999.90;999.90;;;;;;;17.54;100.00;97990.00;5054764;28;20449;-74
2023/06/05 08:38:50;;;;;;;1999.90;999.90;;;;;;;17.52;100.00;97992.25;5073173;28;20090;-74
2023/06/05 08:41:16;;;;;;;1999.90;999.90;;;;;;;17.53;100.00;97994.72;5064209;28;20727;-76
2023/06/05 08:43:44;;;;;;;1999.90;999.90;;;;;;;17.50;100.00;97997.34;5051307;28;20119;-75
2023/06/05 08:46:11;;;;;;;1999.90;999.90;;;;;;;17.44;100.00;97990.41;5051547;28;20037;-75
2023/06/05 08:48:50;;;;;;;1999.90;999.90;;;;;;;17.44;100.00;97995.94;5071976;28;20082;-75
2023/06/05 08:51:17;;;;;;;1999.90;999.90;;;;;;;17.44;100.00;97993.16;5072299;28;20439;-75
2023/06/05 08:53:51;;;;;;;1999.90;999.90;;;;;;;17.52;100.00;97992.25;5072295;28;20021;-74
2023/06/05 08:56:17;;;;;;;1999.90;999.90;;;;;;;17.59;100.00;97998.09;5066059;28;20459;-75
2023/06/05 08:58:44;;;;;;;1999.90;999.90;;;;;;;17.66;100.00;97992.81;5052333;28;20108;-76
2023/06/05 09:01:09;;;;;;;1999.90;999.90;;;;;;;17.70;100.00;97992.97;5052269;28;20021;-75
2023/06/05 09:03:35;;;;;;;1999.90;999.90;;;;;;;17.73;100.00;97984.75;5051913;28;20087;-74
2023/06/05 09:06:02;;;;;;;1999.90;999.90;;;;;;;17.76;100.00;97975.78;5051928;28;20021;-76
2023/06/05 09:08:33;;;;;;;1999.90;999.90;;;;;;;17.88;100.00;97984.13;5056532;28;20477;-78
2023/06/05 09:11:19;;;;;;;1999.90;999.90;;;;;;;17.96;100.00;97980.44;5056360;28;20563;-77
2023/06/05 09:13:46;;;;;;;1999.90;999.90;;;;;;;17.98;100.00;97972.59;5051920;28;20047;-73
2023/06/05 09:16:11;;;;;;;1999.90;999.90;;;;;;;18.06;100.00;97977.25;5052039;28;20075;-75
2023/06/05 09:18:51;;;;;;;1999.90;999.90;;;;;;;18.10;100.00;97978.19;5035644;28;20033;-73
2023/06/05 09:21:16;;;;;;;1999.90;999.90;;;;;;;18.16;100.00;97981.53;5051714;28;20029;-74
2023/06/05 09:23:42;;;;;;;1999.90;999.90;;;;;;;18.20;100.00;97969.41;5051587;28;20382;-76
2023/06/05 09:26:09;;;;;;;1999.90;999.90;;;;;;;18.23;100.00;97969.91;5051753;28;20078;-74
2023/06/05 09:28:34;;;;;;;1999.90;999.90;;;;;;;18.23;100.00;97962.38;5033714;28;20577;-75
2023/06/05 09:31:01;;;;;;;1999.90;999.90;;;;;;;18.21;100.00;97964.69;5033686;28;20029;-74
2023/06/05 09:33:29;;;;;;;1999.90;999.90;;;;;;;18.16;100.00;97968.50;5033450;28;20402;-74
2023/06/05 09:36:07;;;;;;;1999.90;999.90;;;;;;;18.16;100.00;97962.16;5051301;28;20486;-76
2023/06/05 09:38:34;;;;;;;1999.90;999.90;;;;;;;18.15;100.00;97969.66;5051297;28;20111;-73
2023/06/05 09:41:10;;;;;;;1999.90;999.90;;;;;;;18.16;100.00;97962.97;5033268;28;20394;-73
2023/06/05 09:43:37;;;;;;;1999.90;999.90;;;;;;;18.18;100.00;97962.59;5033075;28;20033;-73
2023/06/05 09:46:10;;;;;;;1999.90;999.90;;;;;;;18.20;100.00;97971.38;5050592;28;20106;-75
2023/06/05 09:48:36;;;;;;;1999.90;999.90;;;;;;;18.23;100.00;97964.34;5061574;28;20456;-77
2023/06/05 09:51:17;;;;;;;1999.90;999.90;;;;;;;18.39;100.00;97962.50;5050888;28;20151;-75
2023/06/05 09:53:49;;;;;;;1999.90;999.90;;;;;;;18.48;100.00;97964.00;5048900;28;20370;-75
2023/06/05 09:56:16;;;;;;;1999.90;999.90;;;;;;;18.62;100.00;97955.38;5052767;28;20029;-78
2023/06/05 09:58:45;;;;;;;1999.90;999.90;;;;;;;18.58;100.00;97952.47;5052758;28;20033;-79
2023/06/05 10:01:16;;;;;;;1999.90;999.90;;;;;;;18.58;100.00;97951.66;5070555;28;20029;-78
2023/06/05 10:03:44;;;;;;;1999.90;999.90;;;;;;;18.59;100.00;97961.59;5052609;28;20072;-76
2023/06/05 10:06:09;;;;;;;1999.90;999.90;;;;;;;18.52;100.00;97958.59;5052340;28;20385;-77
2023/06/05 10:08:35;;;;;;;1999.90;999.90;;;;;;;18.41;100.00;97949.94;5070372;28;20067;-77
2023/06/05 10:11:01;;;;;;;1999.90;999.90;;;;;;;18.28;100.00;97953.84;5069995;28;20115;-75
2023/06/05 10:13:28;;;;;;;1999.90;999.90;;;;;;;18.15;100.00;97935.59;5049511;28;20409;-75
2023/06/05 10:15:55;;;;;;;1999.90;999.90;;;;;;;18.21;100.00;97948.06;5070384;28;20052;-75
2023/06/05 10:18:21;;;;;;;1999.90;999.90;;;;;;;18.19;100.00;97939.31;5070375;28;20085;-79
2023/06/05 10:20:46;;;;;;;1999.90;999.90;;;;;;;18.25;100.00;97948.19;5070379;28;20051;-79
2023/06/05 10:23:17;;;;;;;1999.90;999.90;;;;;;;18.18;100.00;97944.03;5049611;28;20055;-78
2023/06/05 10:25:45;;;;;;;1999.90;999.90;;;;;;;18.23;100.00;97939.44;5070179;28;20028;-76
2023/06/05 10:28:17;;;;;;;1999.90;999.90;;;;;;;18.27;100.00;97945.88;5070161;28;20481;-76
2023/06/05 10:30:46;;;;;;;1999.90;999.90;;;;;;;18.30;100.00;97945.19;5070235;28;20481;-79
2023/06/05 10:33:32;;;;;;;1999.90;999.90;;;;;;;18.16;100.00;97940.81;5051850;28;20073;-79
2023/06/05 10:36:12;;;;;;;1999.90;999.90;;;;;;;18.16;100.00;97940.81;5051980;28;20036;-76
2023/06/05 10:38:39;;;;;;;1999.90;999.90;;;;;;;18.17;100.00;97947.94;5070234;28;20435;-76
2023/06/05 10:41:05;;;;;;;1999.90;999.90;;;;;;;18.12;100.00;97934.34;5069748;28;20025;-76
2023/06/05 10:43:33;;;;;;;1999.90;999.90;;;;;;;17.96;100.00;97933.41;5052086;28;20385;-76
2023/06/05 10:46:00;;;;;;;1999.90;999.90;;;;;;;18.02;100.00;97931.19;5068036;28;20052;-76